createdAt,value
2017-09-16T00:04:13.906Z,100032
2017-09-16T00:09:17.116Z,100038
2017-09-16T00:14:20.298Z,100032
2017-09-16T00:19:23.526Z,100020
2017-09-16T00:24:26.727Z,100023
2017-09-16T00:29:29.936Z,100019
2017-09-16T00:34:33.116Z,100025
2017-09-16T00:39:36.325Z,100024
2017-09-16T00:44:39.534Z,100023
2017-09-16T00:54:52.202Z,100023
2017-09-16T00:59:55.447Z,100029
2017-09-16T01:04:58.619Z,100023
2017-09-16T01:10:01.862Z,100023
2017-09-16T01:15:05.067Z,100024
2017-09-16T01:20:08.269Z,100022
2017-09-16T01:25:11.464Z,100020
2017-09-16T01:30:14.684Z,100015
2017-09-16T01:35:17.881Z,100011
2017-09-16T01:40:21.059Z,100011
2017-09-16T01:45:24.257Z,100001
2017-09-16T01:50:27.478Z,100001
2017-09-16T01:55:30.685Z,99996
2017-09-16T02:00:34.015Z,100000
2017-09-16T02:05:37.257Z,99999
2017-09-16T02:10:41.231Z,100004
2017-09-16T02:15:44.436Z,100002
2017-09-16T02:20:47.665Z,99996
2017-09-16T02:25:50.874Z,100002
2017-09-16T02:30:54.075Z,99996
2017-09-16T02:35:57.314Z,100002
2017-09-16T02:41:01.275Z,100006
2017-09-16T02:46:04.469Z,100004
2017-09-16T02:51:07.756Z,100020
2017-09-16T02:56:11.759Z,100005
2017-09-16T03:01:15.004Z,100017
2017-09-16T03:06:18.228Z,100001
2017-09-16T03:11:21.451Z,99997
2017-09-16T03:16:24.648Z,100003
2017-09-16T03:21:27.914Z,99991
2017-09-16T03:26:31.886Z,99992
2017-09-16T03:31:35.091Z,99998
2017-09-16T03:36:38.441Z,99996
2017-09-16T03:41:42.407Z,99995
2017-09-16T03:46:45.625Z,99994
2017-09-16T03:51:48.808Z,99984
2017-09-16T03:56:52.029Z,99984
2017-09-16T04:18:05.536Z,99985
2017-09-16T04:23:08.727Z,99977
2017-09-16T04:28:11.917Z,99979
2017-09-16T04:33:15.096Z,99982
2017-09-16T04:38:18.285Z,99983
2017-09-16T04:43:21.540Z,99985
2017-09-16T04:48:24.746Z,99984
2017-09-16T04:53:27.956Z,99990
2017-09-16T04:58:31.172Z,99983
2017-09-16T05:03:34.383Z,99988
2017-09-16T05:08:37.579Z,99986
2017-09-16T05:13:40.775Z,99998
2017-09-16T05:18:43.958Z,99995
2017-09-16T05:23:47.176Z,99994
2017-09-16T05:28:50.363Z,99996
2017-09-16T05:33:53.552Z,99998
2017-09-16T05:38:57.508Z,99997
2017-09-16T05:44:00.704Z,100002
2017-09-16T05:49:03.893Z,100006
2017-09-16T05:54:07.089Z,100011
2017-09-16T05:59:11.073Z,100009
2017-09-16T06:04:14.283Z,100011
2017-09-16T06:09:17.498Z,100009
2017-09-16T06:14:20.702Z,100008
2017-09-16T06:19:23.924Z,100006
2017-09-16T06:24:27.133Z,100011
2017-09-16T06:29:30.354Z,100024
2017-09-16T06:34:34.330Z,100019
2017-09-16T06:39:37.534Z,100021
2017-09-16T06:44:40.744Z,100024
2017-09-16T06:49:43.946Z,100036
2017-09-16T06:54:47.148Z,100041
2017-09-16T06:59:50.351Z,100033
2017-09-16T07:04:53.542Z,100032
2017-09-16T07:09:57.026Z,100038
2017-09-16T07:15:01.014Z,100045
2017-09-16T07:20:04.246Z,100049
2017-09-16T07:25:07.541Z,100056
2017-09-16T07:30:10.752Z,100048
2017-09-16T07:35:14.026Z,100061
2017-09-16T07:40:17.257Z,100067
2017-09-16T07:45:20.472Z,100062
2017-09-16T07:50:23.678Z,100082
2017-09-16T07:55:28.783Z,100090
2017-09-16T08:00:32.176Z,100089
2017-09-16T08:05:36.288Z,100090
2017-09-16T08:10:39.517Z,100094
2017-09-16T08:15:43.494Z,100098
2017-09-16T08:20:46.701Z,100103
2017-09-16T08:25:49.933Z,100098
2017-09-16T08:30:53.161Z,100101
2017-09-16T08:35:56.461Z,100116
2017-09-16T08:41:00.457Z,100105
2017-09-16T08:46:03.726Z,100116
2017-09-16T08:51:06.942Z,100116
2017-09-16T08:56:10.493Z,100117
2017-09-16T09:01:14.651Z,100119
2017-09-16T09:06:18.631Z,100110
2017-09-16T09:11:21.867Z,100110
2017-09-16T09:16:25.853Z,100112
2017-09-16T09:21:29.194Z,100109
2017-09-16T09:26:32.430Z,100110
2017-09-16T09:31:36.474Z,100101
2017-09-16T09:36:39.725Z,100097
2017-09-16T09:41:43.110Z,100097
2017-09-16T09:46:46.485Z,100096
2017-09-16T09:51:50.467Z,100097
2017-09-16T09:56:53.761Z,100092
2017-09-16T10:01:56.998Z,100078
2017-09-16T10:07:00.265Z,100082
2017-09-16T10:12:03.492Z,100081
2017-09-16T10:17:06.717Z,100080
2017-09-16T10:22:09.918Z,100066
2017-09-16T10:27:14.128Z,100064
2017-09-16T10:32:17.337Z,100077
2017-09-16T10:37:20.551Z,100070
2017-09-16T10:42:24.201Z,100065
2017-09-16T10:47:28.916Z,100056
2017-09-16T10:52:32.512Z,100059
2017-09-16T10:57:35.839Z,100065
2017-09-16T11:02:39.063Z,100049
2017-09-16T11:07:43.891Z,100052
2017-09-16T11:12:47.908Z,100049
2017-09-16T11:17:51.561Z,100048
2017-09-16T11:22:54.792Z,100039
2017-09-16T11:27:58.773Z,100041
2017-09-16T11:33:02.086Z,100026
2017-09-16T11:38:05.321Z,100032
2017-09-16T11:43:09.295Z,100017
2017-09-16T11:48:12.475Z,100016
2017-09-16T11:53:15.710Z,100017
2017-09-16T11:58:18.944Z,100013
2017-09-16T12:03:22.153Z,100011
2017-09-16T12:08:25.744Z,100007
2017-09-16T12:13:28.916Z,100008
2017-09-16T12:18:32.148Z,99995
2017-09-16T12:23:35.315Z,99993
2017-09-16T12:28:38.722Z,99988
2017-09-16T12:33:42.706Z,99988
2017-09-16T12:38:46.725Z,99982
2017-09-16T12:43:50.040Z,99976
2017-09-16T12:48:53.249Z,99985
2017-09-16T12:53:56.466Z,99991
2017-09-16T12:58:59.741Z,99975
2017-09-16T13:04:02.977Z,99971
2017-09-16T13:09:06.200Z,99983
2017-09-16T13:14:09.424Z,100002
2017-09-16T13:19:13.403Z,99977
2017-09-16T13:24:16.621Z,100007
2017-09-16T13:29:19.818Z,100016
2017-09-16T13:34:23.054Z,100025
2017-09-16T13:39:26.296Z,100029
2017-09-16T13:44:29.518Z,100027
2017-09-16T13:49:32.734Z,100023
2017-09-16T13:54:35.969Z,100024
2017-09-16T13:59:39.185Z,100011
2017-09-16T14:04:42.486Z,100015
2017-09-16T14:09:45.729Z,100010
2017-09-16T14:14:49.751Z,100011
2017-09-16T14:19:53.725Z,100015
2017-09-16T14:24:56.921Z,100005
2017-09-16T14:30:00.129Z,100005
2017-09-16T14:35:03.695Z,100001
2017-09-16T14:40:07.650Z,99994
2017-09-16T14:45:11.688Z,100000
2017-09-16T14:50:14.933Z,100006
2017-09-16T14:55:18.148Z,100002
2017-09-16T15:00:22.360Z,100003
2017-09-16T15:05:26.536Z,99995
2017-09-16T15:10:30.634Z,99996
2017-09-16T15:15:33.867Z,100008
2017-09-16T15:20:37.839Z,100022
2017-09-16T15:25:41.045Z,100012
2017-09-16T15:30:44.504Z,100024
2017-09-16T15:35:48.527Z,100020
2017-09-16T15:40:52.492Z,100027
2017-09-16T15:45:55.754Z,100035
2017-09-16T15:50:59.733Z,100036
2017-09-16T15:56:02.966Z,100041
2017-09-16T16:01:06.182Z,100043
2017-09-16T16:06:09.397Z,100049
2017-09-16T16:11:13.374Z,100043
2017-09-16T16:16:16.633Z,100045
2017-09-16T16:21:20.617Z,100046
2017-09-16T16:26:23.979Z,100031
2017-09-16T16:31:27.962Z,100033
2017-09-16T16:36:31.181Z,100033
2017-09-16T16:41:34.402Z,100035
2017-09-16T16:46:37.706Z,100033
2017-09-16T16:51:41.679Z,100025
2017-09-16T16:56:44.944Z,100025
2017-09-16T17:01:48.165Z,100033
2017-09-16T17:06:52.144Z,100024
2017-09-16T17:11:55.330Z,100029
2017-09-16T17:16:58.661Z,100037
2017-09-16T17:22:01.902Z,100053
2017-09-16T17:27:05.124Z,100066
2017-09-16T17:32:08.462Z,100057
2017-09-16T17:37:11.705Z,100063
2017-09-16T17:42:14.969Z,100067
2017-09-16T17:47:18.201Z,100073
2017-09-16T17:52:21.439Z,100085
2017-09-16T17:57:24.751Z,100083
2017-09-16T18:02:28.084Z,100096
2017-09-16T18:07:31.507Z,100094
2017-09-16T18:12:34.899Z,100091
2017-09-16T18:17:38.902Z,100114
2017-09-16T18:22:42.134Z,100108
2017-09-16T18:27:46.141Z,100112
2017-09-16T18:32:49.367Z,100108
2017-09-16T18:37:53.363Z,100107
2017-09-16T18:42:56.592Z,100111
2017-09-16T18:48:00.627Z,100118
2017-09-16T18:53:04.604Z,100126
2017-09-16T18:58:07.945Z,100118
2017-09-16T19:03:12.040Z,100136
2017-09-16T19:08:15.260Z,100128
2017-09-16T19:13:18.575Z,100118
2017-09-16T19:18:21.801Z,100125
2017-09-16T19:23:25.919Z,100134
2017-09-16T19:28:29.217Z,100143
2017-09-16T19:33:32.415Z,100136
2017-09-16T19:38:35.666Z,100141
2017-09-16T19:43:38.871Z,100145
2017-09-16T19:48:42.106Z,100145
2017-09-16T19:53:45.312Z,100152
2017-09-16T19:58:48.625Z,100162
2017-09-16T20:03:51.822Z,100167
2017-09-16T20:08:55.163Z,100172
2017-09-16T20:13:58.371Z,100176
2017-09-16T20:19:01.611Z,100172
2017-09-16T20:24:05.616Z,100174
2017-09-16T20:29:08.824Z,100176
2017-09-16T20:34:12.056Z,100174
2017-09-16T20:39:16.085Z,100169
2017-09-16T20:44:19.319Z,100172
2017-09-16T20:49:22.573Z,100172
2017-09-16T20:54:25.817Z,100171
2017-09-16T20:59:29.082Z,100175
2017-09-16T21:04:32.317Z,100179
2017-09-16T21:09:36.293Z,100183
2017-09-16T21:14:39.509Z,100186
2017-09-16T21:19:42.738Z,100183
2017-09-16T21:24:45.964Z,100182
2017-09-16T21:29:50.041Z,100184
2017-09-16T21:34:53.266Z,100184
2017-09-16T21:39:56.495Z,100188
2017-09-16T21:45:00.518Z,100182
2017-09-16T21:50:04.483Z,100188
2017-09-16T21:55:07.695Z,100186
2017-09-16T22:00:11.039Z,100185
2017-09-16T22:05:14.236Z,100187
2017-09-16T22:10:17.553Z,100186
2017-09-16T22:15:20.781Z,100170
2017-09-16T22:20:24.757Z,100176
2017-09-16T22:25:27.987Z,100173
2017-09-16T22:30:31.186Z,100176
2017-09-16T22:35:34.386Z,100181
2017-09-16T22:40:37.812Z,100173
2017-09-16T22:45:41.010Z,100177
2017-09-16T22:50:44.222Z,100166
2017-09-16T22:55:47.424Z,100171
2017-09-16T23:00:50.880Z,100176
2017-09-16T23:05:54.846Z,100176
2017-09-16T23:10:58.044Z,100174
2017-09-16T23:16:01.246Z,100176
2017-09-16T23:21:04.467Z,100163
2017-09-16T23:26:07.695Z,100166
2017-09-16T23:31:10.940Z,100175
2017-09-16T23:36:14.956Z,100175
2017-09-16T23:41:18.939Z,100173
2017-09-16T23:46:22.338Z,100173
2017-09-16T23:51:25.546Z,100171
2017-09-16T23:56:28.749Z,100163
